Time;durP1;ratioP1;P1;durP2;ratioP2;P2;SDS_P1;SDS_P2;PMS_P1;PMS_P2;Temp;Humidity;BMP_temperature;BMP_pressure;BME280_temperature;BME280_humidity;BME280_pressure;Samples;Min_cycle;Max_cycle;Signal;HPM_P1;HPM_P2
2021/08/10 00:01:42;;;;;;;8.63;5.05;;;;;;;11.97;90.77;99219.47;4997307;28;20038;-68
2021/08/10 00:04:07;;;;;;;12.30;5.40;;;;;;;11.93;90.97;99219.19;4997054;28;20507;-68
2021/08/10 00:06:33;;;;;;;10.38;5.88;;;;;;;11.93;90.89;99216.50;4997090;28;20038;-68
2021/08/10 00:08:58;;;;;;;13.23;6.22;;;;;;;11.92;91.01;99205.94;4996984;28;20058;-68
2021/08/10 00:11:24;;;;;;;12.13;6.18;;;;;;;11.92;91.19;99220.28;4997116;28;20108;-68
2021/08/10 00:13:49;;;;;;;12.50;5.68;;;;;;;11.94;90.96;99212.72;4997101;28;20037;-68
2021/08/10 00:16:15;;;;;;;13.60;6.10;;;;;;;11.94;91.13;99215.44;4997091;28;20056;-68
2021/08/10 00:18:40;;;;;;;10.82;5.85;;;;;;;11.96;90.85;99217.84;4997835;28;20070;-68
2021/08/10 00:21:06;;;;;;;13.75;6.13;;;;;;;11.95;91.28;99216.22;4997014;28;20169;-68
2021/08/10 00:23:31;;;;;;;12.32;5.95;;;;;;;11.92;91.27;99217.56;4997070;28;20057;-68
2021/08/10 00:25:57;;;;;;;11.13;5.72;;;;;;;11.93;91.33;99218.38;4996774;28;20038;-69
2021/08/10 00:28:22;;;;;;;14.10;6.13;;;;;;;11.90;91.57;99217.03;4996956;28;20050;-67
2021/08/10 00:30:48;;;;;;;10.68;5.82;;;;;;;11.90;91.27;99210.81;4996571;28;20046;-68
2021/08/10 00:33:14;;;;;;;12.75;6.32;;;;;;;11.92;91.50;99220.28;4996468;28;20475;-68
2021/08/10 00:35:40;;;;;;;12.32;5.82;;;;;;;11.92;91.71;99217.56;4996835;28;20475;-68
2021/08/10 00:38:08;;;;;;;8.00;5.80;;;;;;;11.93;91.37;99207.56;4996395;28;20056;-68
2021/08/10 00:40:34;;;;;;;16.48;6.28;;;;;;;11.92;91.14;99219.44;4996456;28;20054;-69
2021/08/10 00:43:00;;;;;;;14.50;6.10;;;;;;;11.92;91.17;99212.19;4996714;28;20038;-69
2021/08/10 00:45:25;;;;;;;10.55;6.25;;;;;;;11.87;91.39;99206.75;4996619;28;20487;-68
2021/08/10 00:47:51;;;;;;;10.50;6.03;;;;;;;11.85;91.52;99209.72;4996453;28;20441;-68
2021/08/10 00:50:17;;;;;;;10.57;5.70;;;;;;;11.84;91.71;99212.69;4996028;28;20539;-68
2021/08/10 00:52:43;;;;;;;10.73;5.97;;;;;;;11.82;91.52;99207.53;4996542;28;20038;-69
2021/08/10 00:55:09;;;;;;;9.75;5.68;;;;;;;11.83;91.85;99211.84;4996243;28;20444;-68
2021/08/10 00:57:35;;;;;;;10.93;5.75;;;;;;;11.83;91.69;99209.16;4996303;28;20034;-68
2021/08/10 01:00:01;;;;;;;8.77;5.75;;;;;;;11.83;92.16;99213.75;4996605;28;20038;-68
2021/08/10 01:02:27;;;;;;;12.48;5.80;;;;;;;11.83;92.13;99219.16;4996147;28;20395;-68
2021/08/10 01:04:52;;;;;;;11.57;5.85;;;;;;;11.77;91.79;99215.63;4996102;28;20034;-68
2021/08/10 01:07:38;;;;;;;16.02;6.82;;;;;;;11.76;92.12;99218.59;4995796;28;20423;-68
2021/08/10 01:10:24;;;;;;;23.92;6.18;;;;;;;11.71;92.49;99208.56;4994997;28;20444;-68
2021/08/10 01:12:59;;;;;;;12.95;6.15;;;;;;;11.68;92.27;99206.41;4995859;28;20460;-68
2021/08/10 01:15:30;;;;;;;15.13;6.68;;;;;;;11.65;92.80;99213.16;4996188;28;20031;-68
2021/08/10 01:18:01;;;;;;;10.73;6.20;;;;;;;11.68;92.62;99218.03;4996019;28;20082;-67
2021/08/10 01:20:53;;;;;;;11.13;6.28;;;;;;;11.68;92.59;99212.63;4995910;28;20026;-68
2021/08/10 01:23:25;;;;;;;14.27;5.53;;;;;;;11.63;92.58;99218.00;4996066;28;20085;-68
2021/08/10 01:26:05;;;;;;;13.30;5.55;;;;;;;11.62;92.53;99219.06;4995745;28;20042;-68
2021/08/10 01:28:49;;;;;;;12.02;5.88;;;;;;;11.62;92.86;99219.06;4995840;28;20045;-68
2021/08/10 01:31:14;;;;;;;15.50;6.63;;;;;;;11.60;92.84;99207.72;4995605;28;20444;-68
2021/08/10 01:33:44;;;;;;;13.07;6.53;;;;;;;11.60;93.19;99207.72;4995567;28;20041;-68
2021/08/10 01:36:10;;;;;;;9.38;5.50;;;;;;;11.60;92.86;99198.81;4995495;28;20038;-68
2021/08/10 01:38:38;;;;;;;10.38;6.03;;;;;;;11.60;92.90;99201.50;4995597;28;20034;-67
2021/08/10 01:41:04;;;;;;;14.52;6.20;;;;;;;11.57;93.40;99198.25;4995365;28;20468;-68
2021/08/10 01:43:32;;;;;;;12.57;6.22;;;;;;;11.59;93.07;99198.03;4995171;28;20043;-68
2021/08/10 01:45:58;;;;;;;14.23;5.78;;;;;;;11.58;92.73;99199.09;4995053;28;20035;-68
2021/08/10 01:48:26;;;;;;;12.18;6.15;;;;;;;11.57;92.79;99200.16;4995167;28;20034;-68
2021/08/10 01:50:53;;;;;;;11.45;6.00;;;;;;;11.51;93.10;99196.63;4995148;28;20045;-68
2021/08/10 01:53:20;;;;;;;10.82;6.07;;;;;;;11.48;93.19;99196.31;4977972;28;20089;-68
2021/08/10 01:55:46;;;;;;;13.20;6.15;;;;;;;11.45;93.25;99196.84;4995387;28;20042;-68
2021/08/10 01:58:14;;;;;;;15.52;6.65;;;;;;;11.42;93.72;99199.00;4994425;28;20435;-68
2021/08/10 02:00:44;;;;;;;13.90;6.40;;;;;;;11.36;93.69;99194.63;4995147;28;20101;-68
2021/08/10 02:03:12;;;;;;;16.33;5.97;;;;;;;11.26;94.19;99198.09;4977530;28;20034;-68
2021/08/10 02:05:40;;;;;;;12.35;6.03;;;;;;;11.22;94.47;99206.97;4994979;28;20085;-67
2021/08/10 02:08:08;;;;;;;13.85;6.63;;;;;;;11.19;94.80;99207.47;4995052;28;20042;-67
2021/08/10 02:10:34;;;;;;;11.05;5.97;;;;;;;11.28;94.83;99208.59;4977743;28;20125;-68
2021/08/10 02:13:00;;;;;;;11.60;6.28;;;;;;;11.38;94.95;99213.28;4994978;28;20046;-67
2021/08/10 02:15:26;;;;;;;14.82;6.70;;;;;;;11.49;94.99;99209.56;4995203;28;20022;-68
2021/08/10 02:17:52;;;;;;;13.63;6.97;;;;;;;11.67;94.89;99202.09;4993774;28;20050;-67
2021/08/10 02:20:18;;;;;;;12.68;6.68;;;;;;;11.81;94.24;99203.22;4994621;28;20030;-67
2021/08/10 02:22:47;;;;;;;12.50;5.70;;;;;;;11.98;93.63;99204.91;4992978;28;20052;-68
2021/08/10 02:25:17;;;;;;;12.40;5.70;;;;;;;12.07;93.23;99205.25;4994442;28;20177;-68
2021/08/10 02:27:52;;;;;;;10.70;6.28;;;;;;;12.16;92.87;99206.34;4994587;28;20437;-67
2021/08/10 02:30:31;;;;;;;12.32;6.88;;;;;;;12.19;92.57;99200.41;4994243;28;20050;-67
2021/08/10 02:33:01;;;;;;;11.70;6.00;;;;;;;12.24;92.61;99192.31;4994517;28;20061;-67
2021/08/10 02:35:29;;;;;;;10.30;5.80;;;;;;;12.29;92.55;99199.59;4994333;28;20065;-67
2021/08/10 02:38:00;;;;;;;19.75;6.25;;;;;;;12.32;92.28;99204.47;4976842;28;20539;-67
2021/08/10 02:40:28;;;;;;;12.18;5.88;;;;;;;12.35;92.24;99198.53;4994537;28;20070;-67
2021/08/10 02:42:57;;;;;;;9.35;5.82;;;;;;;12.39;92.09;99196.13;4994515;28;20038;-68
2021/08/10 02:45:23;;;;;;;14.23;6.15;;;;;;;12.39;92.14;99196.94;4994285;28;20148;-68
2021/08/10 02:47:53;;;;;;;10.68;5.82;;;;;;;12.41;92.17;99193.97;4994373;28;20476;-68
2021/08/10 02:50:20;;;;;;;12.38;5.85;;;;;;;12.43;92.24;99191.81;4994295;28;20041;-68
2021/08/10 02:52:45;;;;;;;9.63;5.68;;;;;;;12.45;91.93;99186.94;4994007;28;20031;-67
2021/08/10 02:55:12;;;;;;;10.43;5.78;;;;;;;12.53;91.63;99197.22;4994187;28;20031;-67
2021/08/10 02:57:51;;;;;;;10.80;5.68;;;;;;;12.53;91.75;99205.31;4994229;28;20030;-67
2021/08/10 03:00:16;;;;;;;9.88;5.78;;;;;;;12.56;91.84;99202.06;4976730;28;20528;-67
2021/08/10 03:02:45;;;;;;;10.45;5.32;;;;;;;12.62;91.51;99213.72;4994068;28;20042;-68
2021/08/10 03:05:16;;;;;;;8.48;5.50;;;;;;;12.73;91.09;99217.22;4993741;28;20530;-67
2021/08/10 03:07:48;;;;;;;10.00;5.68;;;;;;;12.72;90.86;99208.31;4994033;28;20076;-67
2021/08/10 03:10:15;;;;;;;12.80;5.70;;;;;;;12.73;90.91;99217.22;4993862;28;20069;-67
2021/08/10 03:12:48;;;;;;;9.93;5.70;;;;;;;12.76;90.76;99213.19;4993786;28;20060;-67
2021/08/10 03:15:15;;;;;;;11.20;6.10;;;;;;;12.79;90.56;99209.94;4993751;28;20104;-68
2021/08/10 03:17:42;;;;;;;9.57;5.75;;;;;;;12.88;90.35;99219.13;4992954;28;20338;-68
2021/08/10 03:20:09;;;;;;;12.50;5.90;;;;;;;12.87;90.35;99221.00;4993994;28;20054;-68
2021/08/10 03:22:40;;;;;;;8.68;5.28;;;;;;;12.92;90.16;99217.50;4993968;28;20034;-67
2021/08/10 03:25:07;;;;;;;15.43;5.30;;;;;;;12.88;90.48;99219.13;4975994;28;20035;-67
2021/08/10 03:27:34;;;;;;;10.13;5.65;;;;;;;12.87;90.59;99218.31;4993487;28;20090;-68
2021/08/10 03:30:03;;;;;;;13.07;6.38;;;;;;;12.96;90.16;99225.88;4993165;28;20085;-67
2021/08/10 03:32:30;;;;;;;9.02;5.50;;;;;;;12.92;90.44;99216.69;4992232;28;20039;-67
2021/08/10 03:34:57;;;;;;;15.60;5.70;;;;;;;12.92;90.76;99216.69;4993108;28;20022;-67
2021/08/10 03:37:22;;;;;;;11.32;6.20;;;;;;;12.90;90.42;99211.56;4993720;28;20037;-66
2021/08/10 03:39:49;;;;;;;11.55;6.53;;;;;;;12.89;90.30;99204.53;4993600;28;20447;-66
2021/08/10 03:42:15;;;;;;;14.52;5.97;;;;;;;12.90;90.85;99225.06;4994120;28;20037;-66
2021/08/10 03:44:42;;;;;;;17.02;5.90;;;;;;;12.90;90.94;99222.38;4992648;28;20034;-66
2021/08/10 03:47:10;;;;;;;9.30;5.68;;;;;;;12.91;91.02;99223.16;4993131;28;20080;-68
2021/08/10 03:49:38;;;;;;;14.70;6.07;;;;;;;12.96;90.76;99220.47;4993414;28;20034;-67
2021/08/10 03:52:05;;;;;;;11.70;5.65;;;;;;;12.97;90.86;99212.09;4993354;28;20546;-67
2021/08/10 03:54:31;;;;;;;11.65;5.82;;;;;;;12.96;91.07;99212.34;4993499;28;20034;-67
2021/08/10 03:56:58;;;;;;;14.40;5.68;;;;;;;12.99;90.82;99214.50;4993542;28;20333;-67
2021/08/10 03:59:27;;;;;;;15.32;6.18;;;;;;;12.99;90.83;99207.22;4993108;28;20031;-67
2021/08/10 04:01:54;;;;;;;18.40;5.78;;;;;;;12.97;91.25;99208.56;4976040;28;20041;-67
2021/08/10 04:04:21;;;;;;;21.42;6.20;;;;;;;12.96;91.63;99212.34;4993333;28;20157;-67
2021/08/10 04:06:48;;;;;;;16.88;6.03;;;;;;;12.95;91.72;99219.66;4993127;28;20030;-68
2021/08/10 04:09:13;;;;;;;19.63;6.65;;;;;;;12.96;91.40;99212.34;4992970;28;20031;-67
2021/08/10 04:11:40;;;;;;;10.57;5.85;;;;;;;12.95;91.52;99208.03;4992790;28;20600;-68
2021/08/10 04:14:09;;;;;;;12.77;6.13;;;;;;;12.92;91.83;99220.19;4975659;28;20034;-67
2021/08/10 04:16:46;;;;;;;13.95;6.13;;;;;;;12.91;91.76;99213.19;4993426;28;20113;-67
2021/08/10 04:19:13;;;;;;;9.98;5.60;;;;;;;12.92;92.10;99216.69;4993092;28;20058;-67
2021/08/10 04:21:39;;;;;;;11.52;5.80;;;;;;;12.90;92.32;99222.38;4993172;28;20061;-67
2021/08/10 04:24:05;;;;;;;17.10;6.15;;;;;;;12.89;92.12;99215.34;4976442;28;20515;-66
2021/08/10 04:26:33;;;;;;;11.57;6.00;;;;;;;12.91;92.39;99223.16;4993026;28;20027;-66
2021/08/10 04:29:00;;;;;;;11.38;5.13;;;;;;;12.93;92.33;99215.59;4992954;28;20034;-66
2021/08/10 04:31:26;;;;;;;20.65;5.97;;;;;;;12.96;92.07;99223.97;4992832;28;20373;-65
2021/08/10 04:33:52;;;;;;;10.65;6.10;;;;;;;12.99;92.58;99225.31;4992564;28;20063;-66
2021/08/10 04:36:18;;;;;;;13.05;5.70;;;;;;;13.01;92.06;99228.56;4992744;28;20107;-65
2021/08/10 04:38:44;;;;;;;11.88;5.15;;;;;;;13.09;92.24;99227.22;4992638;28;20058;-68
2021/08/10 04:41:09;;;;;;;12.77;5.03;;;;;;;13.18;91.93;99220.97;4992280;28;20368;-68
2021/08/10 04:43:34;;;;;;;15.52;5.85;;;;;;;13.17;93.05;99222.06;4992538;28;20065;-68
2021/08/10 04:46:01;;;;;;;9.82;5.55;;;;;;;13.13;93.61;99229.09;4995099;28;20034;-68
2021/08/10 04:48:26;;;;;;;10.05;5.53;;;;;;;13.03;94.07;99221.81;4996155;28;20045;-68
2021/08/10 04:50:52;;;;;;;16.33;5.80;;;;;;;13.00;94.95;99227.75;4996153;28;20057;-68
2021/08/10 04:53:17;;;;;;;15.40;6.32;;;;;;;12.93;95.27;99235.34;4996275;28;20035;-69
2021/08/10 04:55:43;;;;;;;15.30;6.10;;;;;;;12.91;95.67;99244.78;4996095;28;20038;-69
2021/08/10 04:58:09;;;;;;;12.23;6.18;;;;;;;12.84;95.81;99243.16;4996091;28;20037;-69
2021/08/10 05:00:35;;;;;;;13.50;6.30;;;;;;;12.83;96.03;99243.44;4996950;28;20077;-68
2021/08/10 05:03:00;;;;;;;9.02;6.20;;;;;;;12.81;96.66;99249.09;4978635;28;20054;-69
2021/08/10 05:05:26;;;;;;;11.23;6.55;;;;;;;12.77;96.73;99241.81;4996225;28;20121;-69
2021/08/10 05:07:51;;;;;;;12.80;6.40;;;;;;;12.77;96.83;99239.13;4996677;28;20042;-68
2021/08/10 05:10:16;;;;;;;10.75;6.68;;;;;;;12.76;97.09;99242.91;4995922;28;20050;-68
2021/08/10 05:12:42;;;;;;;10.75;6.47;;;;;;;12.77;97.29;99248.03;4996579;28;20252;-69
2021/08/10 05:15:08;;;;;;;12.18;6.45;;;;;;;12.77;97.40;99244.53;4996135;28;20391;-69
2021/08/10 05:17:33;;;;;;;12.45;6.40;;;;;;;12.78;97.42;99254.25;4995800;28;20054;-69
2021/08/10 05:20:00;;;;;;;18.17;7.00;;;;;;;12.80;97.26;99254.78;4996026;28;20039;-69
2021/08/10 05:22:26;;;;;;;12.50;6.00;;;;;;;12.82;97.36;99253.44;4995893;28;20038;-69
2021/08/10 05:24:52;;;;;;;17.55;6.55;;;;;;;12.85;97.33;99254.78;4995801;28;20372;-69
2021/08/10 05:27:17;;;;;;;12.90;6.05;;;;;;;12.86;97.42;99254.50;4995780;28;20050;-67
2021/08/10 05:29:43;;;;;;;12.40;6.68;;;;;;;12.94;97.53;99255.06;4995975;28;20038;-68
2021/08/10 05:32:09;;;;;;;13.02;6.25;;;;;;;12.95;97.32;99257.50;4995145;28;20509;-69
2021/08/10 05:34:35;;;;;;;16.98;6.85;;;;;;;12.97;97.20;99268.03;4994145;28;20035;-69
2021/08/10 05:37:00;;;;;;;10.57;5.90;;;;;;;12.99;97.11;99268.56;4995357;28;20104;-69
2021/08/10 05:39:26;;;;;;;11.07;6.25;;;;;;;13.05;97.23;99272.09;4995476;28;20034;-69
2021/08/10 05:41:51;;;;;;;14.32;6.32;;;;;;;13.10;97.20;99272.09;4995184;28;20092;-69
2021/08/10 05:44:17;;;;;;;11.57;6.15;;;;;;;13.14;96.71;99267.78;4994964;28;20050;-70
2021/08/10 05:46:43;;;;;;;12.30;6.15;;;;;;;13.20;96.65;99274.78;4995201;28;20045;-69
2021/08/10 05:49:09;;;;;;;10.60;5.63;;;;;;;13.29;96.67;99278.56;4995358;28;20038;-69
2021/08/10 05:51:35;;;;;;;19.02;6.32;;;;;;;13.30;96.67;99279.41;4995230;28;20379;-69
2021/08/10 05:54:01;;;;;;;13.70;6.72;;;;;;;13.31;96.64;99270.19;4995093;28;20045;-69
2021/08/10 05:56:26;;;;;;;14.20;6.38;;;;;;;13.35;96.87;99267.75;4994402;28;20027;-69
2021/08/10 05:58:52;;;;;;;17.45;6.50;;;;;;;13.36;96.58;99263.97;4994938;28;20060;-69
2021/08/10 06:01:18;;;;;;;11.40;6.20;;;;;;;13.41;96.89;99275.59;4977658;28;20030;-68
2021/08/10 06:03:44;;;;;;;11.30;6.03;;;;;;;13.41;96.73;99272.91;4993376;28;20392;-68
2021/08/10 06:06:09;;;;;;;9.75;6.38;;;;;;;13.44;96.68;99280.50;4995023;28;20057;-68
2021/08/10 06:08:35;;;;;;;16.48;6.60;;;;;;;13.48;96.49;99275.34;4995085;28;20560;-68
2021/08/10 06:11:01;;;;;;;9.63;5.50;;;;;;;13.50;96.17;99278.56;4994549;28;20399;-69
2021/08/10 06:13:26;;;;;;;10.32;6.28;;;;;;;13.56;96.21;99271.28;4994570;28;20042;-68
2021/08/10 06:15:52;;;;;;;15.57;7.18;;;;;;;13.60;95.90;99265.03;4994859;28;20114;-68
2021/08/10 06:18:17;;;;;;;9.43;5.80;;;;;;;13.70;95.92;99272.31;4977172;28;20346;-68
2021/08/10 06:20:43;;;;;;;10.32;5.90;;;;;;;13.80;95.29;99270.66;4994298;28;20505;-68
2021/08/10 06:23:09;;;;;;;15.80;6.03;;;;;;;13.85;94.83;99281.47;4995120;28;20046;-68
2021/08/10 06:25:35;;;;;;;14.60;5.90;;;;;;;13.93;94.42;99275.50;4994877;28;20045;-69
2021/08/10 06:28:00;;;;;;;11.25;5.55;;;;;;;13.96;94.35;99271.41;4994473;28;20045;-67
2021/08/10 06:30:26;;;;;;;12.40;5.78;;;;;;;13.97;94.24;99276.56;4994004;28;20073;-68
2021/08/10 06:32:52;;;;;;;16.70;6.10;;;;;;;13.98;94.48;99278.19;4994776;28;20034;-67
2021/08/10 06:35:18;;;;;;;13.50;5.45;;;;;;;13.97;94.74;99286.56;4994183;28;20498;-67
2021/08/10 06:37:44;;;;;;;12.02;5.90;;;;;;;13.89;95.79;99290.66;4994120;28;20148;-68
2021/08/10 06:40:10;;;;;;;13.38;6.38;;;;;;;13.82;96.37;99293.66;4994997;28;20133;-67
2021/08/10 06:42:35;;;;;;;10.25;6.10;;;;;;;13.79;95.66;99288.00;4994423;28;20034;-67
2021/08/10 06:45:01;;;;;;;14.15;6.57;;;;;;;13.74;95.69;99286.09;4994457;28;20065;-67
2021/08/10 06:47:27;;;;;;;11.95;6.53;;;;;;;13.70;96.78;99293.97;4994349;28;20041;-67
2021/08/10 06:49:52;;;;;;;13.40;6.97;;;;;;;13.69;96.89;99294.22;4994299;28;20383;-67
2021/08/10 06:52:18;;;;;;;14.07;7.53;;;;;;;13.67;96.28;99290.97;4994913;28;20161;-68
2021/08/10 06:54:44;;;;;;;14.43;7.65;;;;;;;13.78;96.46;99289.88;4994086;28;20062;-69
2021/08/10 06:57:10;;;;;;;16.60;7.50;;;;;;;13.97;96.09;99284.69;4994185;28;20372;-68
2021/08/10 06:59:37;;;;;;;14.82;6.88;;;;;;;14.04;95.44;99289.78;4994610;28;20034;-69
2021/08/10 07:02:08;;;;;;;10.18;6.82;;;;;;;14.09;95.35;99288.97;4994195;28;20066;-69
2021/08/10 07:04:35;;;;;;;16.85;7.10;;;;;;;14.18;95.47;99292.72;4994030;28;20041;-68
2021/08/10 07:07:02;;;;;;;11.88;6.38;;;;;;;14.29;94.42;99291.59;4994543;28;20034;-70
2021/08/10 07:09:34;;;;;;;12.60;6.15;;;;;;;14.44;94.17;99298.00;4993491;28;20042;-70
2021/08/10 07:11:59;;;;;;;12.25;6.25;;;;;;;14.51;93.14;99297.72;4993862;28;20034;-70
2021/08/10 07:14:25;;;;;;;10.77;6.20;;;;;;;14.71;92.51;99300.34;4993527;28;20073;-69
2021/08/10 07:16:51;;;;;;;9.60;6.10;;;;;;;14.80;91.58;99302.44;4993783;28;20085;-70
2021/08/10 07:19:16;;;;;;;9.15;5.80;;;;;;;15.00;89.96;99310.44;4993699;28;20122;-70
2021/08/10 07:21:43;;;;;;;13.10;5.68;;;;;;;15.03;90.41;99311.78;4976214;28;20049;-70
2021/08/10 07:24:09;;;;;;;8.52;5.82;;;;;;;15.23;89.38;99313.50;4993695;28;20046;-70
2021/08/10 07:26:35;;;;;;;7.22;5.03;;;;;;;15.29;88.93;99311.59;4992922;28;20069;-70
2021/08/10 07:29:01;;;;;;;6.72;5.97;;;;;;;15.21;89.37;99313.81;4992929;28;20041;-69
2021/08/10 07:31:27;;;;;;;12.23;5.95;;;;;;;15.24;89.60;99319.75;4993586;28;20030;-70
2021/08/10 07:33:53;;;;;;;11.00;5.65;;;;;;;15.33;89.48;99316.13;4993594;28;20031;-70
2021/08/10 07:36:18;;;;;;;11.00;5.93;;;;;;;15.48;88.34;99320.63;4993433;28;20130;-70
2021/08/10 07:38:45;;;;;;;6.82;5.80;;;;;;;15.53;87.93;99330.63;4993742;28;20039;-70
2021/08/10 07:41:10;;;;;;;10.43;5.60;;;;;;;15.60;87.33;99324.88;4993544;28;20101;-70
2021/08/10 07:43:36;;;;;;;11.43;7.38;;;;;;;15.59;87.58;99340.31;4993210;28;20448;-70
2021/08/10 07:46:01;;;;;;;14.70;8.68;;;;;;;15.57;85.84;99339.00;4993513;28;20061;-70
2021/08/10 07:48:27;;;;;;;13.38;7.13;;;;;;;15.52;87.64;99334.44;4993430;28;20536;-70
2021/08/10 07:50:53;;;;;;;12.52;8.05;;;;;;;15.60;87.19;99336.53;4993378;28;20162;-70
2021/08/10 07:53:21;;;;;;;14.50;9.75;;;;;;;15.74;86.44;99346.69;4993392;28;20034;-70
2021/08/10 07:55:48;;;;;;;14.35;10.05;;;;;;;15.93;86.68;99341.41;4993506;28;20092;-70
2021/08/10 07:58:13;;;;;;;17.92;13.30;;;;;;;15.95;85.29;99348.16;4993069;28;20038;-71
2021/08/10 08:00:39;;;;;;;16.88;14.23;;;;;;;15.81;84.90;99358.84;4993332;28;20049;-70
2021/08/10 08:03:04;;;;;;;17.02;13.07;;;;;;;15.80;84.12;99365.38;4994194;28;20030;-71
2021/08/10 08:05:31;;;;;;;16.55;11.40;;;;;;;15.69;85.15;99360.31;4993460;28;20436;-71
2021/08/10 08:07:57;;;;;;;14.10;11.65;;;;;;;15.64;85.13;99359.28;4975885;28;20066;-71
2021/08/10 08:10:22;;;;;;;14.65;12.60;;;;;;;15.63;85.40;99365.81;4992982;28;20077;-70
2021/08/10 08:12:48;;;;;;;14.65;11.95;;;;;;;15.80;84.83;99361.84;4993188;28;20092;-71
2021/08/10 08:19:01;;;;;;;9.85;8.85;;;;;;;16.09;83.79;99366.50;4993568;28;20088;-71
2021/08/10 08:21:27;;;;;;;8.52;7.15;;;;;;;16.28;83.18;99366.53;4997058;28;20046;-71
2021/08/10 08:23:53;;;;;;;8.65;6.82;;;;;;;16.65;82.61;99364.19;4996622;28;20030;-70
2021/08/10 08:26:21;;;;;;;9.30;5.93;;;;;;;17.08;79.52;99368.78;4997019;28;20042;-71
2021/08/10 08:28:48;;;;;;;13.27;10.60;;;;;;;17.13;80.07;99371.44;4996624;28;20438;-69
2021/08/10 08:31:13;;;;;;;17.65;13.35;;;;;;;17.21;78.24;99370.75;4996374;28;20045;-70
2021/08/10 08:37:35;;;;;;;13.05;11.50;;;;;;;17.04;78.08;99376.72;4996635;28;20246;-70
2021/08/10 08:40:01;;;;;;;12.57;9.70;;;;;;;17.14;78.41;99385.84;4996713;28;20034;-70
2021/08/10 08:42:27;;;;;;;10.60;8.65;;;;;;;17.01;78.21;99388.19;4996382;28;20041;-71
2021/08/10 08:44:52;;;;;;;8.88;7.97;;;;;;;17.22;77.90;99385.16;4996664;28;20040;-70
2021/08/10 08:47:22;;;;;;;12.82;7.93;;;;;;;17.10;78.02;99385.63;4996159;28;20045;-70
2021/08/10 08:49:49;;;;;;;13.85;8.35;;;;;;;17.01;78.38;99380.03;4997019;28;20117;-71
2021/08/10 08:52:16;;;;;;;6.88;6.20;;;;;;;17.02;78.64;99384.38;4996191;28;20480;-71
2021/08/10 08:54:43;;;;;;;7.75;5.45;;;;;;;17.00;79.48;99383.84;4995906;28;20041;-71
2021/08/10 08:57:09;;;;;;;6.60;4.18;;;;;;;17.14;78.77;99388.56;4996224;28;20045;-71
2021/08/10 08:59:39;;;;;;;3.78;2.92;;;;;;;17.26;77.62;99380.75;4996291;28;20035;-69
2021/08/10 09:02:08;;;;;;;3.58;2.95;;;;;;;17.30;78.44;99383.69;4996002;28;20042;-70
2021/08/10 09:04:34;;;;;;;4.25;2.60;;;;;;;17.59;78.03;99388.13;4994593;28;20046;-71
2021/08/10 09:06:59;;;;;;;4.45;3.15;;;;;;;17.67;75.23;99384.72;4996418;28;20038;-70
2021/08/10 09:09:27;;;;;;;6.93;6.30;;;;;;;17.78;74.91;99382.63;4996172;28;20035;-70
2021/08/10 09:12:07;;;;;;;8.13;7.18;;;;;;;17.85;74.02;99372.16;4996038;28;20042;-70
2021/08/10 09:14:48;;;;;;;9.57;7.57;;;;;;;17.82;73.87;99384.44;4995963;28;20042;-70
2021/08/10 09:17:19;;;;;;;5.40;4.78;;;;;;;17.67;74.01;99387.44;4995787;28;20075;-70
2021/08/10 09:19:50;;;;;;;6.82;4.10;;;;;;;17.60;74.58;99390.53;4995659;28;20041;-70
2021/08/10 09:22:16;;;;;;;8.23;3.33;;;;;;;17.56;75.05;99394.97;4995871;28;20182;-70
2021/08/10 09:24:52;;;;;;;5.85;3.20;;;;;;;17.63;74.57;99397.31;4995875;28;20447;-70
2021/08/10 09:27:30;;;;;;;3.60;2.00;;;;;;;17.18;76.02;99401.28;4995856;28;20044;-71
2021/08/10 09:29:58;;;;;;;5.20;2.30;;;;;;;16.87;79.53;99404.41;4995354;28;20050;-71
2021/08/10 09:32:24;;;;;;;5.75;2.53;;;;;;;16.80;79.55;99402.06;4995295;28;20038;-71
2021/08/10 09:35:15;;;;;;;3.92;2.45;;;;;;;16.66;79.69;99393.78;4995408;28;20034;-70
2021/08/10 09:37:41;;;;;;;4.35;2.53;;;;;;;16.71;79.44;99392.94;4995699;28;20038;-70
2021/08/10 09:40:29;;;;;;;5.15;2.83;;;;;;;16.75;78.27;99391.25;4995527;28;20042;-70
2021/08/10 09:43:29;;;;;;;3.15;2.42;;;;;;;16.85;78.73;99397.66;4995354;28;20053;-70
2021/08/10 09:49:44;;;;;;;5.55;2.55;;;;;;;17.03;76.78;99393.34;4995096;28;20044;-71
2021/08/10 09:52:23;;;;;;;4.57;2.22;;;;;;;17.02;77.27;99399.91;4995046;28;20093;-70
2021/08/10 09:54:49;;;;;;;4.43;2.20;;;;;;;16.98;76.82;99405.09;4995018;28;20468;-70
2021/08/10 09:57:14;;;;;;;6.38;2.00;;;;;;;17.10;76.32;99408.19;4994438;28;20044;-70
2021/08/10 09:59:41;;;;;;;3.80;1.67;;;;;;;17.28;75.34;99411.19;4994870;28;20041;-71
2021/08/10 10:02:17;;;;;;;5.13;1.85;;;;;;;17.50;73.83;99407.88;4994572;28;20452;-70
2021/08/10 10:04:54;;;;;;;6.22;1.70;;;;;;;17.87;73.64;99404.53;4994569;28;20084;-69
2021/08/10 10:07:21;;;;;;;2.70;1.95;;;;;;;18.11;72.49;99405.22;4994330;28;20401;-71
2021/08/10 10:09:47;;;;;;;4.45;1.63;;;;;;;18.15;71.04;99408.16;4994441;28;20030;-72
2021/08/10 10:12:19;;;;;;;3.35;1.42;;;;;;;18.42;71.25;99406.53;4994272;28;20121;-69
2021/08/10 10:14:48;;;;;;;3.95;1.52;;;;;;;18.66;70.03;99413.69;4994758;28;20177;-69
2021/08/10 10:17:14;;;;;;;4.25;1.33;;;;;;;18.63;68.81;99423.31;4994016;28;20042;-69
2021/08/10 10:19:43;;;;;;;3.00;1.00;;;;;;;18.41;68.99;99415.84;4994122;28;20073;-71
2021/08/10 10:22:17;;;;;;;2.72;1.33;;;;;;;18.57;68.03;99414.41;4994076;28;20046;-71
2021/08/10 10:24:51;;;;;;;3.30;1.20;;;;;;;18.82;68.12;99409.53;4994421;28;20084;-71
2021/08/10 10:27:18;;;;;;;5.97;1.20;;;;;;;19.03;66.14;99411.84;4994630;28;20035;-69
2021/08/10 10:29:50;;;;;;;3.80;1.40;;;;;;;19.16;64.95;99405.53;4994010;28;20042;-69
2021/08/10 10:32:20;;;;;;;3.33;1.45;;;;;;;19.25;64.50;99402.06;4994274;28;20034;-70
2021/08/10 10:34:46;;;;;;;5.88;1.48;;;;;;;19.32;65.00;99413.34;4993804;28;20546;-70
2021/08/10 10:37:19;;;;;;;5.68;1.33;;;;;;;19.26;63.98;99415.41;4994113;28;20041;-70
2021/08/10 10:39:45;;;;;;;3.90;1.40;;;;;;;18.94;66.29;99424.56;4993536;28;20061;-69
2021/08/10 10:42:15;;;;;;;2.75;1.60;;;;;;;18.97;65.08;99422.06;4993835;28;20089;-68
2021/08/10 10:44:42;;;;;;;3.05;1.40;;;;;;;19.09;64.69;99424.25;4993679;28;20496;-69
2021/08/10 10:47:21;;;;;;;3.90;1.20;;;;;;;19.24;63.91;99416.81;4993559;28;20444;-70
2021/08/10 10:49:47;;;;;;;4.57;1.38;;;;;;;19.33;61.99;99414.97;4993739;28;20053;-69
2021/08/10 10:52:17;;;;;;;2.58;1.08;;;;;;;19.30;63.80;99419.13;4993452;28;20081;-70
2021/08/10 10:54:46;;;;;;;3.33;1.02;;;;;;;19.52;60.30;99420.25;4993264;28;20035;-71
2021/08/10 10:57:32;;;;;;;2.42;1.20;;;;;;;19.35;61.19;99426.38;4993943;28;20038;-70
2021/08/10 11:00:04;;;;;;;1.73;0.90;;;;;;;19.66;63.23;99422.94;4993777;28;20073;-70
2021/08/10 11:02:31;;;;;;;2.47;1.00;;;;;;;20.06;60.08;99427.69;4993692;28;20104;-70
2021/08/10 11:05:05;;;;;;;4.15;1.20;;;;;;;20.02;60.27;99430.25;4993753;28;20034;-70
2021/08/10 11:07:37;;;;;;;1.50;0.98;;;;;;;19.83;61.65;99430.44;4993454;28;20061;-70
2021/08/10 11:10:43;;;;;;;5.68;1.38;;;;;;;19.64;61.80;99424.34;4993318;28;20101;-70
2021/08/10 11:13:21;;;;;;;6.28;1.20;;;;;;;19.55;62.27;99425.09;4914569;29;20515;-70
2021/08/10 11:15:47;;;;;;;5.28;1.33;;;;;;;19.69;62.09;99426.97;4914566;29;20139;-70
2021/08/10 11:18:12;;;;;;;4.00;1.00;;;;;;;19.78;60.55;99425.09;4914529;29;20482;-70
2021/08/10 11:20:47;;;;;;;3.33;1.00;;;;;;;19.68;60.09;99439.00;4914407;29;20134;-71
2021/08/10 11:23:23;;;;;;;6.03;1.10;;;;;;;19.82;60.72;99441.69;4898513;29;20067;-70
2021/08/10 11:25:54;;;;;;;3.20;1.00;;;;;;;20.01;61.61;99446.94;4914971;29;20047;-69
2021/08/10 11:28:28;;;;;;;2.97;1.15;;;;;;;19.80;60.73;99447.44;4914272;29;20040;-70
2021/08/10 11:30:55;;;;;;;2.35;1.02;;;;;;;19.89;60.46;99445.59;4914513;29;20051;-70
2021/08/10 11:37:27;;;;;;;0.93;0.60;;;;;;;20.16;58.00;99443.81;4914425;29;20062;-69
2021/08/10 11:40:18;;;;;;;1.75;0.65;;;;;;;20.40;58.34;99455.50;4914343;29;20123;-69
2021/08/10 11:42:53;;;;;;;1.08;0.60;;;;;;;20.27;59.63;99449.00;4913953;28;20491;-69
2021/08/10 11:45:20;;;;;;;1.95;0.95;;;;;;;20.07;59.38;99458.56;4993290;28;20039;-69
2021/08/10 11:47:59;;;;;;;1.52;0.80;;;;;;;19.71;59.03;99441.13;4993071;28;20050;-69